createdAt,value
2022-08-26T00:00:13.540Z,26.75
2022-08-26T00:05:27.570Z,35.23
2022-08-26T00:10:44.921Z,30.95
2022-08-26T00:15:51.833Z,32.37
2022-08-26T00:20:57.198Z,22.62
2022-08-26T00:26:06.841Z,27.07
2022-08-26T00:31:18.613Z,31.12
2022-08-26T00:36:38.177Z,22.70
2022-08-26T00:41:45.145Z,29.43
2022-08-26T00:46:54.191Z,24.37
2022-08-26T00:52:02.935Z,25.40
2022-08-26T00:57:27.377Z,21.77
2022-08-26T01:02:35.911Z,29.03
2022-08-26T01:07:42.924Z,25.00
2022-08-26T01:13:00.203Z,26.23
2022-08-26T01:18:16.481Z,20.23
2022-08-26T01:23:36.515Z,25.65
2022-08-26T01:28:51.485Z,19.25
2022-08-26T01:34:09.919Z,19.27
2022-08-26T01:39:40.233Z,20.65
2022-08-26T01:44:57.176Z,21.35
2022-08-26T01:50:08.244Z,21.50
2022-08-26T01:55:39.694Z,25.50
2022-08-26T02:01:13.395Z,27.85
2022-08-26T02:06:34.731Z,19.90
2022-08-26T02:11:49.048Z,23.47
2022-08-26T02:17:16.748Z,21.13
2022-08-26T02:22:28.635Z,22.77
2022-08-26T02:27:53.431Z,14.43
2022-08-26T02:33:06.205Z,21.73
2022-08-26T02:38:43.146Z,20.57
2022-08-26T02:44:13.214Z,16.63
2022-08-26T02:49:20.763Z,23.73
2022-08-26T02:54:41.554Z,21.30
2022-08-26T03:00:23.976Z,19.30
2022-08-26T03:05:37.995Z,21.50
2022-08-26T03:22:33.654Z,14.65
2022-08-26T03:27:42.997Z,18.43
2022-08-26T03:33:12.395Z,20.77
2022-08-26T03:39:03.624Z,15.43
2022-08-26T03:44:15.383Z,16.12
2022-08-26T03:54:57.605Z,16.30
2022-08-26T04:00:18.498Z,12.30
2022-08-26T04:05:36.489Z,16.53
2022-08-26T04:10:47.112Z,17.00
2022-08-26T04:16:05.734Z,11.90
2022-08-26T04:21:36.691Z,14.33
2022-08-26T04:27:17.616Z,21.53
2022-08-26T04:32:29.983Z,14.30
2022-08-26T04:37:37.091Z,13.77
2022-08-26T04:42:50.899Z,15.40
2022-08-26T04:54:07.059Z,17.25
2022-08-26T04:59:39.564Z,12.27
2022-08-26T05:28:48.137Z,11.67
2022-08-26T05:34:10.979Z,14.97
2022-08-26T05:45:36.647Z,11.43
2022-08-26T05:56:48.014Z,17.20
2022-08-26T06:01:58.745Z,16.53
2022-08-26T06:07:15.489Z,14.70
2022-08-26T06:12:40.060Z,15.03
2022-08-26T06:17:46.879Z,16.97
2022-08-26T06:23:17.838Z,14.33
2022-08-26T06:28:24.769Z,21.20
2022-08-26T06:33:31.655Z,17.17
2022-08-26T06:38:37.598Z,14.53
2022-08-26T06:43:44.645Z,15.35
2022-08-26T06:48:50.339Z,10.28
2022-08-26T06:53:59.409Z,15.78
2022-08-26T06:59:07.609Z,10.68
2022-08-26T07:04:22.126Z,13.90
2022-08-26T07:09:27.926Z,14.33
2022-08-26T07:14:34.734Z,13.15
2022-08-26T07:19:41.430Z,10.50
2022-08-26T07:24:46.755Z,11.45
2022-08-26T07:29:57.038Z,18.87
2022-08-26T07:35:06.350Z,9.60
2022-08-26T07:40:13.431Z,13.22
2022-08-26T07:45:20.590Z,14.28
2022-08-26T07:50:49.572Z,11.18
2022-08-26T07:55:39.114Z,12.58
2022-08-26T08:01:06.817Z,9.45
2022-08-26T08:06:15.446Z,11.50
2022-08-26T08:11:22.576Z,18.52
2022-08-26T08:16:32.207Z,6.97
2022-08-26T08:21:36.899Z,13.98
2022-08-26T08:26:42.599Z,11.20
2022-08-26T08:31:58.502Z,14.23
2022-08-26T08:36:57.487Z,10.32
2022-08-26T08:42:34.797Z,9.13
2022-08-26T08:47:47.594Z,13.03
2022-08-26T08:53:09.041Z,13.60
2022-08-26T08:58:19.133Z,9.75
2022-08-26T09:03:45.602Z,12.37
2022-08-26T09:08:56.763Z,10.88
2022-08-26T09:14:03.766Z,9.90
2022-08-26T09:19:23.281Z,11.15
2022-08-26T09:24:31.144Z,11.15
2022-08-26T09:29:50.462Z,8.40
2022-08-26T09:35:23.753Z,17.80
2022-08-26T09:40:37.283Z,9.05
2022-08-26T09:45:54.975Z,7.28
2022-08-26T09:51:01.367Z,10.43
2022-08-26T09:56:19.298Z,14.75
2022-08-26T10:01:32.898Z,12.80
2022-08-26T10:06:41.525Z,11.93
2022-08-26T10:11:56.147Z,8.58
2022-08-26T10:17:31.718Z,12.80
2022-08-26T10:22:39.923Z,12.75
2022-08-26T10:27:55.201Z,10.25
2022-08-26T10:33:03.594Z,10.38
2022-08-26T10:38:14.641Z,11.05
2022-08-26T10:43:34.453Z,10.20
2022-08-26T10:48:45.719Z,17.02
2022-08-26T10:54:14.750Z,11.20
2022-08-26T10:59:23.044Z,8.95
2022-08-26T11:04:50.778Z,12.68
2022-08-26T11:09:56.980Z,9.53
2022-08-26T11:15:24.644Z,14.78
2022-08-26T11:20:47.335Z,10.30
2022-08-26T11:26:01.932Z,8.08
2022-08-26T11:31:10.676Z,10.85
2022-08-26T11:36:50.331Z,5.45
2022-08-26T11:42:00.266Z,7.92
2022-08-26T11:47:07.853Z,11.18
2022-08-26T11:52:22.989Z,8.45
2022-08-26T11:57:30.257Z,14.00
2022-08-26T12:02:35.612Z,11.18
2022-08-26T12:07:42.659Z,12.07
2022-08-26T12:12:51.140Z,7.95
2022-08-26T12:17:56.497Z,7.83
2022-08-26T12:23:02.817Z,6.42
2022-08-26T12:28:08.585Z,7.62
2022-08-26T12:33:22.957Z,7.97
2022-08-26T12:38:25.116Z,6.60
2022-08-26T12:43:42.617Z,8.30
2022-08-26T12:48:50.628Z,8.10
2022-08-26T12:53:56.379Z,9.03
2022-08-26T12:59:13.420Z,9.38
2022-08-26T13:04:36.279Z,10.48
2022-08-26T13:09:42.090Z,8.30
2022-08-26T13:14:48.559Z,7.92
2022-08-26T13:19:53.990Z,13.25
2022-08-26T13:24:59.420Z,16.60
2022-08-26T13:30:05.326Z,11.88
2022-08-26T13:35:12.691Z,9.63
2022-08-26T13:40:18.165Z,13.55
2022-08-26T13:45:23.582Z,6.03
2022-08-26T13:50:28.895Z,8.75
2022-08-26T13:55:49.513Z,16.37
2022-08-26T14:00:57.022Z,16.35
2022-08-26T14:06:02.396Z,7.20
2022-08-26T14:11:08.640Z,7.75
2022-08-26T14:16:25.808Z,5.17
2022-08-26T14:21:33.640Z,6.85
2022-08-26T14:26:39.159Z,12.43
2022-08-26T14:31:50.273Z,9.13
2022-08-26T14:36:55.648Z,10.25
2022-08-26T14:42:01.660Z,9.38
2022-08-26T14:47:07.537Z,5.53
2022-08-26T14:52:14.080Z,9.58
2022-08-26T14:57:19.489Z,8.58
2022-08-26T15:02:40.178Z,10.08
2022-08-26T15:07:32.207Z,8.90
2022-08-26T15:12:39.326Z,15.40
2022-08-26T15:17:44.845Z,11.50
2022-08-26T15:22:50.867Z,23.65
2022-08-26T15:27:59.502Z,16.60
2022-08-26T15:33:14.874Z,16.55
2022-08-26T15:38:14.613Z,17.60
2022-08-26T15:43:28.649Z,8.58
2022-08-26T15:48:28.947Z,9.05
2022-08-26T15:53:36.757Z,9.75
2022-08-26T15:58:42.785Z,14.78
2022-08-26T16:03:52.249Z,7.05
2022-08-26T16:08:59.164Z,14.05
2022-08-26T16:14:07.831Z,9.40
2022-08-26T16:19:13.502Z,12.15
2022-08-26T16:24:25.912Z,6.45
2022-08-26T16:29:29.713Z,8.03
2022-08-26T16:34:36.298Z,14.18
2022-08-26T16:39:45.173Z,9.13
2022-08-26T16:44:48.770Z,12.45
2022-08-26T16:49:54.109Z,34.23
2022-08-26T16:55:00.049Z,10.90
2022-08-26T17:00:09.907Z,9.25
2022-08-26T17:05:15.769Z,11.60
2022-08-26T17:10:21.822Z,12.88
2022-08-26T17:15:27.280Z,11.83
2022-08-26T17:20:32.712Z,10.78
2022-08-26T17:25:38.819Z,13.32
2022-08-26T17:30:44.763Z,18.52
2022-08-26T17:35:50.160Z,15.43
2022-08-26T17:40:56.490Z,15.68
2022-08-26T17:46:06.607Z,19.87
2022-08-26T17:51:17.292Z,15.90
2022-08-26T17:56:25.703Z,11.83
2022-08-26T18:01:31.120Z,20.70
2022-08-26T18:06:38.557Z,13.20
2022-08-26T18:11:43.948Z,14.83
2022-08-26T18:16:49.826Z,13.35
2022-08-26T18:22:01.114Z,16.62
2022-08-26T18:27:06.617Z,19.82
2022-08-26T18:32:11.888Z,17.02
2022-08-26T18:37:17.327Z,24.02
2022-08-26T18:42:23.974Z,24.20
2022-08-26T18:47:30.435Z,24.85
2022-08-26T18:52:35.910Z,17.90
2022-08-26T18:57:41.879Z,20.62
2022-08-26T19:03:01.878Z,19.27
2022-08-26T19:08:08.585Z,13.22
2022-08-26T19:13:14.132Z,15.18
2022-08-26T19:18:21.480Z,19.17
2022-08-26T19:23:31.826Z,19.02
2022-08-26T19:28:34.676Z,19.20
2022-08-26T19:33:45.599Z,16.90
2022-08-26T19:38:52.061Z,19.60
2022-08-26T19:43:59.012Z,17.52
2022-08-26T19:49:04.323Z,21.35
2022-08-26T19:54:10.573Z,27.20
2022-08-26T19:59:15.896Z,18.00
2022-08-26T20:04:21.225Z,23.98
2022-08-26T20:09:26.596Z,26.87
2022-08-26T20:14:31.972Z,20.12
2022-08-26T20:19:55.332Z,30.60
2022-08-26T20:25:00.690Z,30.77
2022-08-26T20:30:08.152Z,25.68
2022-08-26T20:35:15.412Z,30.15
2022-08-26T20:40:21.580Z,26.50
2022-08-26T20:45:27.126Z,32.30
2022-08-26T20:50:33.434Z,20.20
2022-08-26T20:55:39.307Z,26.30
2022-08-26T21:00:44.763Z,23.47
2022-08-26T21:05:50.664Z,27.00
2022-08-26T21:10:56.251Z,28.70
2022-08-26T21:16:01.632Z,15.13
2022-08-26T21:21:09.002Z,16.85
2022-08-26T21:26:16.005Z,15.90
2022-08-26T21:31:24.296Z,19.57
2022-08-26T21:36:29.664Z,20.70
2022-08-26T21:41:35.127Z,25.00
2022-08-26T21:46:40.770Z,27.70
2022-08-26T21:51:48.722Z,20.07
2022-08-26T21:56:54.151Z,29.75
2022-08-26T22:02:00.534Z,17.43
2022-08-26T22:07:06.159Z,17.97
2022-08-26T22:12:12.852Z,21.57
2022-08-26T22:17:18.258Z,19.90
2022-08-26T22:22:23.596Z,16.90
2022-08-26T22:27:29.035Z,24.30
2022-08-26T22:32:35.520Z,20.00
2022-08-26T22:37:41.576Z,24.33
2022-08-26T22:42:55.574Z,24.90
2022-08-26T22:47:54.010Z,22.73
2022-08-26T22:52:59.777Z,23.37
2022-08-26T22:58:06.989Z,24.07
2022-08-26T23:03:12.768Z,20.10
2022-08-26T23:08:18.272Z,22.37
2022-08-26T23:13:32.498Z,20.33
2022-08-26T23:18:38.717Z,24.13
2022-08-26T23:23:46.374Z,22.27
2022-08-26T23:28:51.740Z,20.03
2022-08-26T23:34:14.899Z,23.50
2022-08-26T23:39:20.357Z,22.90
2022-08-26T23:44:26.874Z,21.40
2022-08-26T23:49:32.972Z,24.10
2022-08-26T23:54:40.026Z,15.57
2022-08-26T23:59:48.799Z,19.37
